Time;durP1;ratioP1;P1;durP2;ratioP2;P2;SDS_P1;SDS_P2;PMS_P1;PMS_P2;Temp;Humidity;BMP_temperature;BMP_pressure;BME280_temperature;BME280_humidity;BME280_pressure;Samples;Min_cycle;Max_cycle;Signal;HPM_P1;HPM_P2
2022/04/12 00:01:06;;;;;;;5.63;3.83;;;;;;;8.81;66.76;99323.81;5002526;28;20052;-64
2022/04/12 00:03:51;;;;;;;5.53;3.45;;;;;;;8.81;66.73;99316.91;5001550;28;20509;-65
2022/04/12 00:06:36;;;;;;;5.47;3.50;;;;;;;8.81;66.51;99316.91;5016457;28;20052;-64
2022/04/12 00:09:19;;;;;;;6.97;3.70;;;;;;;8.82;66.57;99320.38;5002237;28;20056;-64
2022/04/12 00:12:04;;;;;;;4.68;3.90;;;;;;;8.81;66.59;99319.50;5016686;28;20573;-64
2022/04/12 00:14:48;;;;;;;10.02;3.78;;;;;;;8.82;66.71;99330.72;5001676;28;20092;-64
2022/04/12 00:20:36;;;;;;;4.47;3.92;;;;;;;8.81;66.59;99322.09;5016669;28;20064;-64
2022/04/12 00:23:20;;;;;;;4.47;3.58;;;;;;;8.82;66.48;99323.81;5001267;28;20053;-64
2022/04/12 00:26:04;;;;;;;4.63;3.85;;;;;;;8.83;66.57;99330.72;5002017;28;20574;-64
2022/04/12 00:28:48;;;;;;;5.65;4.03;;;;;;;8.82;66.76;99326.41;5016224;28;20145;-64
2022/04/12 00:31:32;;;;;;;4.97;3.80;;;;;;;8.81;66.66;99322.09;5016362;28;20504;-64
2022/04/12 00:34:16;;;;;;;5.88;4.28;;;;;;;8.80;66.75;99312.59;5001497;28;20520;-64
2022/04/12 00:37:00;;;;;;;4.30;3.38;;;;;;;8.81;66.54;99314.34;5016554;28;20533;-64
2022/04/12 00:39:44;;;;;;;5.57;3.80;;;;;;;8.81;66.90;99305.72;5016152;28;20053;-64
2022/04/12 00:42:28;;;;;;;5.47;3.42;;;;;;;8.81;66.73;99304.00;5016172;28;20103;-64
2022/04/12 00:45:12;;;;;;;4.97;4.10;;;;;;;8.82;67.05;99286.78;5015761;28;20072;-64
2022/04/12 00:47:56;;;;;;;;;;;;;;;8.80;66.76;99288.50;5001751;28;20112;-64
2022/04/12 00:50:41;;;;;;;6.18;3.53;;;;;;;8.78;66.61;99301.41;5016171;28;19920;-65
2022/04/12 00:53:27;;;;;;;4.97;3.95;;;;;;;8.80;66.90;99298.81;5015707;28;20076;-64
2022/04/12 00:56:11;;;;;;;5.20;3.75;;;;;;;8.80;66.90;99317.75;5000903;28;20484;-64
2022/04/12 00:58:55;;;;;;;;;;;;;;;8.78;66.52;99313.44;5016003;28;20060;-64
2022/04/12 01:01:39;;;;;;;4.60;4.00;;;;;;;8.77;66.74;99303.94;5015674;28;19932;-64
2022/04/12 01:04:23;;;;;;;5.22;3.70;;;;;;;8.78;66.78;99311.75;5015354;28;20049;-64
2022/04/12 01:07:07;;;;;;;6.35;3.75;;;;;;;8.79;66.80;99318.66;5015943;28;20508;-64
2022/04/12 01:09:52;;;;;;;4.05;3.10;;;;;;;8.80;66.63;99320.34;5015116;28;20578;-64
2022/04/12 01:12:41;;;;;;;5.22;2.80;;;;;;;8.80;66.84;99309.16;5000804;28;20060;-64
2022/04/12 01:15:25;;;;;;;4.82;3.53;;;;;;;8.80;67.04;99315.19;5000379;28;20091;-64
2022/04/12 01:18:10;;;;;;;4.22;2.90;;;;;;;8.82;66.99;99321.25;5015141;28;20052;-65
2022/04/12 01:20:54;;;;;;;5.10;3.65;;;;;;;8.82;67.07;99323.81;5015070;28;20091;-64
2022/04/12 01:24:05;;;;;;;6.03;3.72;;;;;;;8.82;66.71;99328.13;5014824;28;20515;-64
2022/04/12 01:26:50;;;;;;;4.00;3.30;;;;;;;8.81;66.79;99327.25;5015326;28;20408;-64
2022/04/12 01:29:35;;;;;;;4.22;3.72;;;;;;;8.82;66.71;99326.41;5000640;28;20103;-64
2022/04/12 01:32:20;;;;;;;4.30;3.35;;;;;;;8.82;66.88;99328.13;5014965;28;20420;-64
2022/04/12 01:35:04;;;;;;;4.40;3.33;;;;;;;8.83;66.80;99322.13;5000826;28;20465;-65
2022/04/12 01:37:48;;;;;;;7.10;4.43;;;;;;;8.83;66.78;99314.38;5014727;28;20048;-64
2022/04/12 01:40:32;;;;;;;8.63;3.80;;;;;;;8.82;67.01;99316.06;4999922;28;20052;-64
2022/04/12 01:43:16;;;;;;;4.70;3.85;;;;;;;8.81;66.58;99310.91;5014479;28;20154;-64
2022/04/12 01:46:00;;;;;;;5.53;3.67;;;;;;;8.81;67.05;99304.00;5015213;28;20520;-64
2022/04/12 01:48:47;;;;;;;;;;;;;;;8.80;66.52;99304.00;5015612;28;20045;-64
2022/04/12 01:51:31;;;;;;;3.28;2.80;;;;;;;8.79;66.84;99312.59;5014247;28;19959;-64
2022/04/12 01:54:15;;;;;;;4.38;3.97;;;;;;;8.78;66.74;99309.16;5015055;28;20056;-64
2022/04/12 01:56:59;;;;;;;4.10;3.70;;;;;;;8.81;66.88;99321.22;5014694;28;20112;-64
2022/04/12 01:59:43;;;;;;;5.75;3.75;;;;;;;8.81;66.76;99316.91;5000073;28;20052;-64
2022/04/12 02:02:27;;;;;;;;;;;;;;;8.80;66.88;99309.16;4999573;28;20112;-64
2022/04/12 02:05:11;;;;;;;3.63;3.30;;;;;;;8.79;67.14;99286.75;5014521;28;19924;-64
2022/04/12 02:07:55;;;;;;;3.97;2.83;;;;;;;8.80;66.96;99276.41;5015015;28;20044;-64
2022/04/12 02:10:39;;;;;;;6.00;3.20;;;;;;;8.79;67.08;99290.22;5014691;28;20088;-64
2022/04/12 02:13:22;;;;;;;4.28;3.22;;;;;;;8.82;66.75;99299.72;5014389;28;20077;-64
2022/04/12 02:16:06;;;;;;;4.32;3.28;;;;;;;8.80;67.26;99291.91;5014224;28;20053;-64
2022/04/12 02:18:50;;;;;;;5.95;4.10;;;;;;;8.80;66.98;99298.81;5014561;28;20100;-64
2022/04/12 02:21:34;;;;;;;4.50;2.90;;;;;;;8.81;66.98;99304.00;5014282;28;20052;-64
2022/04/12 02:24:18;;;;;;;5.47;3.58;;;;;;;8.81;67.01;99309.16;5014501;28;20512;-63
2022/04/12 02:27:02;;;;;;;4.50;2.80;;;;;;;8.81;67.13;99311.75;5013738;28;20053;-65
2022/04/12 02:29:46;;;;;;;;;;;;;;;8.82;66.85;99304.88;5000055;28;20049;-64
2022/04/12 02:32:32;;;;;;;5.57;3.83;;;;;;;8.81;66.91;99292.81;5014246;28;19975;-64
2022/04/12 02:35:16;;;;;;;5.22;3.40;;;;;;;8.81;67.23;99288.50;4999526;28;20057;-64
2022/04/12 02:37:59;;;;;;;5.60;3.15;;;;;;;8.82;66.76;99294.53;4999513;28;20182;-64
2022/04/12 02:40:43;;;;;;;4.60;3.13;;;;;;;8.80;66.85;99279.00;4999520;28;20400;-64
2022/04/12 02:43:27;;;;;;;4.78;3.33;;;;;;;8.82;67.13;99286.78;5013922;28;20052;-64
2022/04/12 02:46:11;;;;;;;3.95;3.05;;;;;;;8.82;67.07;99281.63;5014281;28;20460;-64
2022/04/12 02:48:56;;;;;;;;;;;;;;;8.81;66.83;99269.56;4999229;28;20147;-64
2022/04/12 02:51:39;;;;;;;5.70;2.83;;;;;;;8.81;67.19;99267.81;4998669;28;19920;-64
2022/04/12 02:54:24;;;;;;;4.50;2.63;;;;;;;8.80;67.04;99260.91;5013831;28;20544;-65
2022/04/12 02:57:07;;;;;;;4.10;3.60;;;;;;;8.81;67.05;99256.63;5014109;28;20104;-64
2022/04/12 02:59:51;;;;;;;3.63;2.78;;;;;;;8.81;67.24;99246.28;5014085;28;20068;-64
2022/04/12 03:02:35;;;;;;;3.80;2.85;;;;;;;8.80;67.02;99250.59;5013787;28;20096;-65
2022/04/12 03:05:19;;;;;;;5.07;2.95;;;;;;;8.81;67.07;99233.38;5013767;28;20120;-65
2022/04/12 03:08:04;;;;;;;5.40;3.58;;;;;;;8.81;67.16;99239.41;5013938;28;20140;-64
2022/04/12 03:10:49;;;;;;;4.82;2.88;;;;;;;8.81;67.08;99244.56;4998550;28;20420;-64
2022/04/12 03:13:33;;;;;;;3.80;2.72;;;;;;;8.80;66.84;99248.00;4999112;28;20516;-65
2022/04/12 03:16:17;;;;;;;5.13;3.80;;;;;;;8.81;66.87;99238.56;5013638;28;20571;-65
2022/04/12 03:19:01;;;;;;;4.55;3.38;;;;;;;8.82;67.08;99248.03;5013506;28;20076;-64
2022/04/12 03:21:45;;;;;;;5.30;3.45;;;;;;;8.82;67.13;99253.19;5013741;28;20088;-64
2022/04/12 03:24:31;;;;;;;3.42;3.13;;;;;;;8.81;66.96;99238.56;4998776;28;20076;-64
2022/04/12 03:27:14;;;;;;;4.13;3.72;;;;;;;8.81;66.72;99234.22;5013180;28;20084;-64
2022/04/12 03:29:58;;;;;;;5.65;3.40;;;;;;;8.80;67.25;99232.50;5013250;28;20048;-64
2022/04/12 03:32:43;;;;;;;4.80;3.33;;;;;;;8.81;67.06;99223.03;5013315;28;20136;-64
2022/04/12 03:35:27;;;;;;;;;;;;;;;8.80;66.96;99223.91;4999099;28;20060;-63
2022/04/12 03:38:13;;;;;;;2.90;2.60;;;;;;;8.78;67.19;99216.13;4998801;28;19920;-64
2022/04/12 03:40:58;;;;;;;5.85;2.80;;;;;;;8.78;66.89;99218.72;4999037;28;20069;-64
2022/04/12 03:43:43;;;;;;;6.07;3.13;;;;;;;8.79;66.87;99217.00;4998282;28;20104;-64
2022/04/12 03:46:27;;;;;;;3.95;3.35;;;;;;;8.78;66.87;99213.56;5012888;28;20040;-65
2022/04/12 03:49:10;;;;;;;4.43;3.05;;;;;;;8.79;66.90;99217.00;5013278;28;20132;-64
2022/04/12 03:51:54;;;;;;;3.65;2.38;;;;;;;8.80;67.22;99221.31;5013190;28;20048;-65
2022/04/12 03:54:38;;;;;;;4.63;3.28;;;;;;;8.79;67.16;99217.00;5012384;28;20053;-64
2022/04/12 03:57:25;;;;;;;5.22;3.25;;;;;;;8.80;67.14;99221.31;5013122;28;20052;-65
2022/04/12 04:00:10;;;;;;;6.38;3.20;;;;;;;8.79;67.18;99220.47;5012998;28;20048;-64
2022/04/12 04:02:55;;;;;;;3.03;2.50;;;;;;;8.81;66.87;99210.97;4998038;28;20104;-64
2022/04/12 04:05:38;;;;;;;;;;;;;;;8.78;67.19;99218.72;5017213;28;20052;-64
2022/04/12 04:08:23;;;;;;;4.10;3.25;;;;;;;8.79;67.21;99217.00;5016923;28;20016;-64
2022/04/12 04:11:07;;;;;;;;;;;;;;;8.77;66.96;99211.81;5016697;28;20519;-64
2022/04/12 04:13:51;;;;;;;4.30;3.20;;;;;;;8.79;67.33;99214.41;5017450;28;20439;-64
2022/04/12 04:16:35;;;;;;;;;;;;;;;8.77;67.19;99208.34;5016757;28;20100;-64
2022/04/12 04:19:19;;;;;;;4.50;3.03;;;;;;;8.76;67.26;99212.66;5016782;28;20008;-64
2022/04/12 04:22:04;;;;;;;4.60;3.13;;;;;;;8.78;67.33;99208.38;5016683;28;20108;-64
2022/04/12 04:24:48;;;;;;;;;;;;;;;8.77;67.23;99213.53;5016429;28;20133;-64
2022/04/12 04:27:32;;;;;;;4.18;2.88;;;;;;;8.75;67.47;99205.78;5016546;28;20273;-64
2022/04/12 04:30:17;;;;;;;3.47;3.03;;;;;;;8.76;67.21;99215.25;5001793;28;20431;-64
2022/04/12 04:33:01;;;;;;;4.57;3.30;;;;;;;8.77;67.26;99219.56;5001759;28;20144;-64
2022/04/12 04:35:47;;;;;;;3.40;3.10;;;;;;;8.76;66.90;99211.78;5016070;28;20045;-64
2022/04/12 04:38:31;;;;;;;4.50;2.95;;;;;;;8.76;67.21;99224.72;5001166;28;20060;-64
2022/04/12 04:41:15;;;;;;;5.63;3.00;;;;;;;8.78;66.94;99228.19;5016132;28;20095;-64
2022/04/12 04:44:00;;;;;;;3.42;2.90;;;;;;;8.78;67.14;99223.00;5001306;28;20088;-65
2022/04/12 04:46:44;;;;;;;3.50;3.00;;;;;;;8.77;67.06;99219.56;5015581;28;20107;-64
2022/04/12 04:49:28;;;;;;;3.72;3.08;;;;;;;8.78;67.05;99238.50;5001411;28;20045;-64
2022/04/12 04:52:12;;;;;;;5.32;3.38;;;;;;;8.78;67.08;99246.25;5016016;28;20143;-65
2022/04/12 04:54:56;;;;;;;4.28;3.10;;;;;;;8.77;67.00;99237.66;5016181;28;20068;-64
2022/04/12 04:57:40;;;;;;;3.95;2.92;;;;;;;8.76;67.02;99233.34;5001200;28;20509;-64
2022/04/12 05:00:29;;;;;;;4.40;2.53;;;;;;;8.77;67.11;99224.75;5015813;28;20107;-65
2022/04/12 05:03:13;;;;;;;3.38;3.08;;;;;;;8.77;67.08;99222.16;5000363;28;20129;-65
2022/04/12 05:05:57;;;;;;;4.50;2.67;;;;;;;8.78;67.00;99228.19;5015926;28;20056;-64
2022/04/12 05:08:41;;;;;;;4.28;3.22;;;;;;;8.79;67.07;99225.63;5001145;28;20100;-64
2022/04/12 05:11:25;;;;;;;5.40;3.05;;;;;;;8.79;66.79;99220.47;5000883;28;20049;-65
2022/04/12 05:14:09;;;;;;;3.45;2.80;;;;;;;8.77;67.28;99224.75;5015777;28;20049;-64
2022/04/12 05:16:53;;;;;;;6.05;3.20;;;;;;;8.79;67.04;99233.38;5015003;28;20099;-64
2022/04/12 05:19:37;;;;;;;5.07;2.92;;;;;;;8.80;67.00;99229.06;5015460;28;20049;-64
2022/04/12 05:22:21;;;;;;;6.82;3.58;;;;;;;8.80;67.27;99232.50;5015329;28;20108;-64
2022/04/12 05:25:05;;;;;;;4.90;3.10;;;;;;;8.81;66.99;99238.56;5015444;28;20045;-65
2022/04/12 05:27:49;;;;;;;4.78;2.92;;;;;;;8.81;67.05;99243.72;5000758;28;20052;-64
2022/04/12 05:30:33;;;;;;;4.30;2.80;;;;;;;8.81;67.15;99257.47;5015573;28;20083;-64
2022/04/12 05:33:17;;;;;;;3.42;2.83;;;;;;;8.80;67.17;99254.91;5001106;28;20052;-64
2022/04/12 05:36:01;;;;;;;5.32;3.10;;;;;;;8.80;67.18;99254.91;5015233;28;20133;-64
2022/04/12 05:38:45;;;;;;;6.70;2.92;;;;;;;8.80;67.27;99254.91;5014719;28;20053;-64
2022/04/12 05:41:29;;;;;;;4.05;3.63;;;;;;;8.80;66.95;99257.47;5015239;28;20100;-65
2022/04/12 05:44:13;;;;;;;5.75;2.88;;;;;;;8.80;67.19;99268.66;5014853;28;20045;-64
2022/04/12 05:47:02;;;;;;;3.92;3.20;;;;;;;8.80;66.92;99263.50;5014545;28;20149;-64
2022/04/12 05:49:46;;;;;;;4.70;3.17;;;;;;;8.81;67.29;99256.63;4999798;28;20533;-65
2022/04/12 05:52:31;;;;;;;6.00;3.22;;;;;;;8.82;67.20;99260.94;5014981;28;20077;-64
2022/04/12 05:55:18;;;;;;;5.07;2.88;;;;;;;8.81;67.13;99256.63;5014718;28;20056;-64
2022/04/12 05:58:05;;;;;;;4.38;3.20;;;;;;;8.81;67.23;99257.47;4999698;28;20123;-64
2022/04/12 06:00:49;;;;;;;5.63;3.28;;;;;;;8.82;66.95;99260.94;5000159;28;20149;-65
2022/04/12 06:03:33;;;;;;;7.05;2.90;;;;;;;8.82;67.11;99263.53;4999828;28;20053;-64
2022/04/12 06:06:17;;;;;;;5.25;3.70;;;;;;;8.80;67.29;99263.50;5014588;28;20072;-64
2022/04/12 06:09:02;;;;;;;2.90;2.47;;;;;;;8.81;67.37;99266.97;5014406;28;20048;-65
2022/04/12 06:11:46;;;;;;;5.53;2.80;;;;;;;8.80;67.30;99260.91;5014253;28;20104;-64
2022/04/12 06:14:30;;;;;;;3.58;2.97;;;;;;;8.82;67.21;99255.78;5014077;28;20099;-64
2022/04/12 06:17:14;;;;;;;3.22;2.92;;;;;;;8.81;67.06;99267.81;5014176;28;20464;-64
2022/04/12 06:20:10;;;;;;;4.35;3.08;;;;;;;8.82;67.16;99269.56;5014432;28;20196;-64
2022/04/12 06:22:54;;;;;;;5.22;3.17;;;;;;;8.81;67.33;99283.31;5013801;28;20524;-64
2022/04/12 06:25:38;;;;;;;4.55;3.58;;;;;;;8.83;67.05;99289.38;5014602;28;20049;-64
2022/04/12 06:28:22;;;;;;;4.95;2.65;;;;;;;8.84;67.14;99279.94;5014120;28;20077;-64
2022/04/12 06:31:06;;;;;;;3.13;2.67;;;;;;;8.86;67.28;99282.53;5013979;28;20107;-64
2022/04/12 06:33:50;;;;;;;6.80;2.53;;;;;;;8.88;66.88;99284.25;5013595;28;20464;-64
2022/04/12 06:36:34;;;;;;;;;;;;;;;8.88;66.81;99281.66;5014064;28;20049;-64
2022/04/12 06:39:18;;;;;;;3.88;2.60;;;;;;;8.88;67.06;99273.91;4999407;28;19921;-64
2022/04/12 06:42:02;;;;;;;7.88;2.85;;;;;;;8.91;66.96;99260.19;4999322;28;20149;-64
2022/04/12 06:44:46;;;;;;;4.13;2.95;;;;;;;8.91;67.15;99249.84;5014079;28;20088;-64
2022/04/12 06:47:32;;;;;;;4.78;3.00;;;;;;;8.90;67.04;99258.44;5014165;28;20092;-64
2022/04/12 06:50:16;;;;;;;3.15;2.67;;;;;;;8.92;67.03;99256.75;4998559;28;20429;-65
2022/04/12 06:53:00;;;;;;;5.35;2.83;;;;;;;8.94;66.83;99253.31;5014217;28;20091;-64
2022/04/12 06:55:44;;;;;;;;;;;;;;;8.95;67.01;99260.22;5014151;28;20052;-64
2022/04/12 06:58:28;;;;;;;6.18;3.17;;;;;;;8.95;67.12;99264.53;5013578;28;20400;-64
2022/04/12 07:01:12;;;;;;;2.95;2.35;;;;;;;8.99;67.18;99271.44;5013662;28;20523;-64
2022/04/12 07:03:56;;;;;;;5.88;2.72;;;;;;;9.02;66.84;99266.31;4974358;28;20108;-65
2022/04/12 07:06:40;;;;;;;3.00;2.58;;;;;;;9.02;66.92;99275.81;4974493;28;20101;-64
2022/04/12 07:09:27;;;;;;;3.90;3.03;;;;;;;9.02;66.87;99280.97;4974216;28;20129;-64
2022/04/12 07:12:10;;;;;;;5.22;2.70;;;;;;;9.04;67.03;99280.13;4974571;28;20046;-64
2022/04/12 07:14:54;;;;;;;5.57;3.30;;;;;;;9.06;66.82;99278.44;4973776;28;20053;-65
2022/04/12 07:17:38;;;;;;;3.72;2.97;;;;;;;9.08;67.12;99289.66;4973378;28;20469;-64
2022/04/12 07:20:22;;;;;;;7.40;3.20;;;;;;;9.10;67.09;99292.25;4973735;28;20081;-64
2022/04/12 07:23:06;;;;;;;9.68;2.80;;;;;;;9.12;66.78;99277.63;4973661;28;20042;-64
2022/04/12 07:25:50;;;;;;;5.57;3.28;;;;;;;9.14;66.89;99273.34;4974747;28;20077;-64
2022/04/12 07:28:34;;;;;;;4.72;3.13;;;;;;;9.12;66.87;99262.09;4974480;28;20081;-64
2022/04/12 07:31:18;;;;;;;6.13;3.05;;;;;;;9.14;67.13;99273.34;4974528;28;20050;-64
2022/04/12 07:34:03;;;;;;;5.63;2.63;;;;;;;9.14;66.77;99266.44;4974770;28;20105;-64
2022/04/12 07:36:53;;;;;;;7.25;3.35;;;;;;;9.14;67.02;99271.59;4974176;28;20533;-64
2022/04/12 07:39:37;;;;;;;4.43;2.80;;;;;;;9.15;67.12;99269.91;4976966;28;20105;-65
2022/04/12 07:42:23;;;;;;;6.32;2.65;;;;;;;9.15;66.83;99267.31;4977767;28;20054;-64
2022/04/12 07:45:07;;;;;;;8.25;3.03;;;;;;;9.17;66.92;99273.38;4977595;28;20585;-64
2022/04/12 07:47:51;;;;;;;;;;;;;;;9.19;66.79;99275.97;4977684;28;20053;-64
2022/04/12 07:50:35;;;;;;;7.03;3.08;;;;;;;9.17;66.91;99269.91;4978381;28;19921;-64
2022/04/12 07:53:19;;;;;;;4.90;2.90;;;;;;;9.18;66.90;99282.84;4977803;28;20054;-64
2022/04/12 07:56:03;;;;;;;6.47;3.67;;;;;;;9.19;67.15;99279.41;4978085;28;20466;-64
2022/04/12 07:58:47;;;;;;;3.58;2.90;;;;;;;9.20;67.12;99282.88;4977881;28;20054;-64
2022/04/12 08:01:31;;;;;;;5.82;3.03;;;;;;;9.21;66.88;99276.84;4979795;28;20518;-64
2022/04/12 08:04:15;;;;;;;5.13;3.17;;;;;;;9.19;66.68;99271.63;5002378;28;20045;-64
2022/04/12 08:06:59;;;;;;;5.78;3.05;;;;;;;9.20;67.14;99277.69;5002101;28;20519;-64
2022/04/12 08:09:43;;;;;;;7.85;3.58;;;;;;;9.22;66.84;99273.41;5016146;28;20125;-65
2022/04/12 08:12:27;;;;;;;5.72;3.17;;;;;;;9.22;66.78;99268.22;5016604;28;20061;-64
2022/04/12 08:15:13;;;;;;;5.53;3.03;;;;;;;9.23;66.95;99267.38;5001891;28;20049;-64
2022/04/12 08:17:57;;;;;;;8.30;4.03;;;;;;;9.23;66.96;99267.38;5001574;28;20420;-64
2022/04/12 08:20:41;;;;;;;4.93;3.20;;;;;;;9.22;66.93;99253.56;5001639;28;20520;-64
2022/04/12 08:23:25;;;;;;;6.70;2.97;;;;;;;9.27;66.92;99263.94;5001749;28;20057;-64
2022/04/12 08:26:09;;;;;;;7.47;3.08;;;;;;;9.28;66.94;99268.28;5016466;28;20049;-64
2022/04/12 08:28:53;;;;;;;4.90;2.92;;;;;;;9.29;66.79;99275.19;5002059;28;20570;-64
2022/04/12 08:31:37;;;;;;;5.80;2.92;;;;;;;9.30;67.07;99271.75;5016485;28;20144;-64
2022/04/12 08:34:20;;;;;;;4.30;2.63;;;;;;;9.33;66.82;99276.94;5016625;28;20505;-64
2022/04/12 08:37:07;;;;;;;6.35;3.30;;;;;;;9.33;66.83;99276.09;5016037;28;20052;-64
2022/04/12 08:39:52;;;;;;;5.03;3.13;;;;;;;9.35;66.73;99262.31;5001268;28;20528;-64
2022/04/12 08:42:36;;;;;;;;;;;;;;;9.36;66.95;99256.28;5001572;28;20052;-64
2022/04/12 08:45:21;;;;;;;6.18;3.65;;;;;;;9.36;66.92;99245.94;5016136;28;20011;-64
2022/04/12 08:48:05;;;;;;;5.80;3.20;;;;;;;9.39;66.75;99250.25;5016227;28;20053;-64
2022/04/12 08:50:49;;;;;;;;;;;;;;;9.39;66.65;99256.31;5001752;28;20482;-64
2022/04/12 08:53:34;;;;;;;4.72;2.35;;;;;;;9.40;66.82;99249.41;5001530;28;19983;-64
2022/04/12 08:56:19;;;;;;;4.20;2.78;;;;;;;9.43;66.94;99242.53;5016193;28;20057;-65
2022/04/12 08:59:03;;;;;;;6.55;3.40;;;;;;;9.46;66.80;99252.06;5016039;28;20053;-64
2022/04/12 09:01:47;;;;;;;;;;;;;;;9.48;66.74;99246.88;5015667;28;20132;-64
2022/04/12 09:04:33;;;;;;;2.78;2.20;;;;;;;9.48;66.70;99244.31;5001200;28;19924;-64
2022/04/12 09:07:25;;;;;;;7.20;3.28;;;;;;;9.48;66.81;99258.13;5015605;28;20421;-64
2022/04/12 09:10:09;;;;;;;7.00;3.33;;;;;;;9.52;66.75;99249.50;5001089;28;20048;-64
2022/04/12 09:13:07;;;;;;;;;;;;;;;9.52;66.94;99246.91;5015782;28;20129;-64
2022/04/12 09:15:51;;;;;;;3.55;3.00;;;;;;;9.54;66.85;99237.44;5015818;28;20012;-64
2022/04/12 09:18:41;;;;;;;3.58;2.80;;;;;;;9.58;66.94;99238.31;5015783;28;20052;-64
2022/04/12 09:21:30;;;;;;;3.28;2.55;;;;;;;9.61;66.83;99246.13;5015289;28;20410;-64
2022/04/12 09:24:21;;;;;;;3.85;2.45;;;;;;;9.64;66.57;99246.16;5000659;28;20045;-64
2022/04/12 09:27:10;;;;;;;3.58;2.28;;;;;;;9.67;66.68;99245.28;5000016;28;20045;-64
2022/04/12 09:30:21;;;;;;;7.50;2.83;;;;;;;9.71;66.76;99257.41;5000503;28;20085;-64
2022/04/12 09:33:05;;;;;;;6.22;2.58;;;;;;;9.72;66.84;99260.03;5015447;28;20071;-64
2022/04/12 09:35:49;;;;;;;6.22;3.20;;;;;;;9.74;66.75;99255.69;5000884;28;20049;-64
2022/04/12 09:38:35;;;;;;;4.65;2.58;;;;;;;9.78;66.85;99243.66;5015292;28;20065;-64
2022/04/12 09:41:24;;;;;;;7.32;2.65;;;;;;;9.80;66.68;99236.78;5000586;28;20567;-65
2022/04/12 09:44:08;;;;;;;6.72;3.22;;;;;;;9.83;66.64;99233.34;5000136;28;20131;-64
2022/04/12 09:46:55;;;;;;;5.65;2.35;;;;;;;9.84;66.58;99227.31;5014492;28;20084;-64
2022/04/12 09:49:49;;;;;;;5.22;2.75;;;;;;;9.88;66.83;99221.28;5015024;28;20076;-64
2022/04/12 09:52:33;;;;;;;4.30;2.83;;;;;;;9.90;66.49;99232.50;5015119;28;20053;-64
2022/04/12 09:55:31;;;;;;;5.15;3.15;;;;;;;9.94;66.67;99221.31;5000182;28;20076;-64
2022/04/12 09:58:17;;;;;;;4.75;2.78;;;;;;;9.96;66.67;99219.59;5014581;28;20045;-64
2022/04/12 10:01:01;;;;;;;4.38;2.80;;;;;;;9.97;66.48;99217.88;5014256;28;20056;-63
2022/04/12 10:03:50;;;;;;;5.00;2.90;;;;;;;9.96;66.62;99214.44;4975594;28;20573;-64
2022/04/12 10:06:40;;;;;;;4.63;2.92;;;;;;;9.98;66.53;99217.00;4974553;28;20120;-64
2022/04/12 10:09:28;;;;;;;4.18;2.88;;;;;;;10.01;66.26;99225.69;4974845;28;20054;-64
2022/04/12 10:12:12;;;;;;;7.50;2.90;;;;;;;10.01;66.52;99220.50;4974972;28;20093;-64
2022/04/12 10:14:56;;;;;;;;;;;;;;;10.03;66.30;99221.38;4975129;28;20082;-64
2022/04/12 10:17:41;;;;;;;10.98;2.85;;;;;;;10.05;66.36;99216.19;4975618;28;19969;-64
2022/04/12 10:20:24;;;;;;;;;;;;;;;10.05;66.76;99218.78;4974647;28;20058;-64
2022/04/12 10:23:09;;;;;;;6.10;3.15;;;;;;;10.06;66.31;99223.97;4975079;28;19925;-64
2022/04/12 10:25:55;;;;;;;6.60;2.58;;;;;;;10.10;66.50;99224.88;4975494;28;20050;-65
2022/04/12 10:28:39;;;;;;;3.38;2.65;;;;;;;10.18;66.48;99232.66;4974696;28;20085;-65
2022/04/12 10:31:25;;;;;;;3.92;1.98;;;;;;;10.25;66.48;99229.22;4974570;28;20065;-64
2022/04/12 10:34:12;;;;;;;2.95;1.95;;;;;;;10.32;66.29;99220.63;4973863;28;20057;-64
2022/04/12 10:37:09;;;;;;;9.05;2.40;;;;;;;10.41;66.12;99226.72;4974041;28;20050;-64
2022/04/12 10:40:03;;;;;;;3.40;2.53;;;;;;;10.46;66.06;99233.66;4973810;28;20141;-64
2022/04/12 10:42:49;;;;;;;5.85;2.38;;;;;;;10.50;66.31;99234.56;4974176;28;20185;-65
2022/04/12 10:45:33;;;;;;;6.13;2.90;;;;;;;10.52;66.34;99232.81;4974064;28;20140;-65
2022/04/12 10:48:22;;;;;;;;;;;;;;;10.56;65.87;99225.94;4975575;28;20046;-64
2022/04/12 10:51:07;;;;;;;4.30;2.45;;;;;;;10.53;66.04;99228.50;4974890;28;19924;-64
2022/04/12 10:53:55;;;;;;;3.78;2.05;;;;;;;10.50;66.18;99219.00;4973922;28;20130;-64
2022/04/12 10:56:39;;;;;;;5.53;2.55;;;;;;;10.51;66.27;99225.88;4974147;28;20053;-64
2022/04/12 10:59:38;;;;;;;12.35;3.20;;;;;;;10.51;66.00;99224.19;4975042;28;20481;-65
2022/04/12 11:02:28;;;;;;;8.80;2.67;;;;;;;10.51;66.24;99231.94;4981985;28;20539;-64
2022/04/12 11:05:42;;;;;;;4.57;3.05;;;;;;;10.53;66.18;99228.50;4994373;28;20054;-64
2022/04/12 11:08:32;;;;;;;6.93;2.53;;;;;;;10.56;65.90;99225.94;4993250;28;20568;-65
2022/04/12 11:11:22;;;;;;;8.20;2.35;;;;;;;10.58;66.14;99214.69;4993130;28;20057;-64
2022/04/12 11:14:25;;;;;;;6.15;3.08;;;;;;;10.61;65.86;99219.91;4994669;28;20061;-65
2022/04/12 11:17:12;;;;;;;4.50;2.75;;;;;;;10.63;66.03;99210.41;4997438;28;20134;-64
2022/04/12 11:19:57;;;;;;;8.30;3.15;;;;;;;10.67;65.84;99198.31;4998111;28;20053;-64
2022/04/12 11:22:42;;;;;;;3.92;2.55;;;;;;;10.65;65.95;99202.63;4997873;28;20097;-65
2022/04/12 11:25:26;;;;;;;3.47;2.33;;;;;;;10.64;66.03;99201.78;4997749;28;20203;-64
2022/04/12 11:28:14;;;;;;;4.47;2.75;;;;;;;10.68;65.89;99218.19;4997524;28;20049;-64
2022/04/12 11:30:58;;;;;;;4.95;2.80;;;;;;;10.67;65.84;99221.63;4997975;28;20561;-65
2022/04/12 11:33:44;;;;;;;4.60;2.50;;;;;;;10.68;65.66;99227.66;4997924;28;20096;-64
2022/04/12 11:36:28;;;;;;;2.92;2.25;;;;;;;10.68;65.98;99219.88;4997929;28;20572;-64
2022/04/12 11:39:17;;;;;;;4.47;2.50;;;;;;;10.69;65.49;99213.84;4997851;28;20061;-64
2022/04/12 11:42:07;;;;;;;6.05;2.92;;;;;;;10.71;65.71;99217.31;4996718;28;20052;-65
2022/04/12 11:44:53;;;;;;;5.07;2.80;;;;;;;10.74;65.90;99213.03;4997618;28;20077;-64
2022/04/12 11:47:44;;;;;;;4.80;2.88;;;;;;;10.75;65.80;99208.69;4997671;28;20053;-65
2022/04/12 11:50:28;;;;;;;6.75;3.45;;;;;;;10.75;65.67;99195.72;4997603;28;20084;-65
2022/04/12 11:53:12;;;;;;;;;;;;;;;10.74;65.43;99191.41;4997781;28;20467;-64
2022/04/12 11:56:03;;;;;;;6.60;2.60;;;;;;;10.72;65.45;99193.13;4997581;28;19921;-65
2022/04/12 11:58:47;;;;;;;3.40;2.38;;;;;;;10.72;65.64;99198.31;4996334;28;20129;-64
2022/04/12 12:01:31;;;;;;;4.25;2.30;;;;;;;10.71;65.68;99209.53;4998648;28;20116;-65
2022/04/12 12:04:15;;;;;;;7.05;2.95;;;;;;;10.71;65.57;99199.16;5002011;28;20064;-64
2022/04/12 12:07:03;;;;;;;4.35;2.30;;;;;;;10.73;65.68;99193.16;5016932;28;20057;-64
2022/04/12 12:09:56;;;;;;;5.82;2.72;;;;;;;10.74;65.74;99189.69;5001575;28;20103;-64
2022/04/12 12:12:45;;;;;;;7.57;2.90;;;;;;;10.75;65.59;99187.97;5016492;28;20487;-64
2022/04/12 12:15:29;;;;;;;7.75;2.83;;;;;;;10.75;66.10;99188.81;5001767;28;20080;-64
2022/04/12 12:18:15;;;;;;;4.90;3.15;;;;;;;10.76;65.70;99195.72;5016695;28;20061;-64
2022/04/12 12:20:59;;;;;;;4.75;2.42;;;;;;;10.74;65.83;99187.09;5001971;28;20049;-64
2022/04/12 12:23:43;;;;;;;5.68;2.67;;;;;;;10.75;66.04;99188.81;5016328;28;20133;-64
2022/04/12 12:26:28;;;;;;;3.95;2.72;;;;;;;10.74;65.88;99202.66;5016790;28;20099;-64
2022/04/12 12:29:12;;;;;;;3.65;2.45;;;;;;;10.74;65.86;99181.03;5001853;28;20108;-64
2022/04/12 12:31:57;;;;;;;3.97;2.75;;;;;;;10.77;65.72;99181.06;5001350;28;20112;-64
2022/04/12 12:34:44;;;;;;;8.02;2.78;;;;;;;10.78;65.77;99178.44;5016198;28;20413;-64
2022/04/12 12:37:28;;;;;;;3.15;2.63;;;;;;;10.79;65.90;99181.94;5016507;28;20129;-64
2022/04/12 12:40:18;;;;;;;5.35;3.03;;;;;;;10.81;65.95;99185.38;5001725;28;20053;-64
2022/04/12 12:43:07;;;;;;;6.57;2.47;;;;;;;10.81;65.65;99180.19;5001155;28;20084;-64
2022/04/12 12:45:51;;;;;;;6.53;3.08;;;;;;;10.84;65.46;99182.78;5001027;28;20056;-65
2022/04/12 12:48:34;;;;;;;4.50;2.38;;;;;;;10.84;65.77;99177.59;5001469;28;20104;-64
2022/04/12 12:51:19;;;;;;;5.28;2.95;;;;;;;10.85;65.79;99178.47;5016256;28;20088;-64
2022/04/12 12:54:04;;;;;;;6.75;2.58;;;;;;;10.85;65.87;99178.47;5001441;28;20076;-64
2022/04/12 12:56:49;;;;;;;4.10;2.97;;;;;;;10.86;65.88;99180.19;5001227;28;20420;-64
2022/04/12 12:59:37;;;;;;;5.90;2.72;;;;;;;10.86;65.70;99175.88;5001219;28;20116;-65
2022/04/12 13:02:21;;;;;;;5.30;2.95;;;;;;;10.87;65.82;99175.00;5015590;28;20061;-65
2022/04/12 13:05:11;;;;;;;3.92;2.38;;;;;;;10.87;65.67;99169.81;5015518;28;20053;-64
2022/04/12 13:07:58;;;;;;;2.95;2.20;;;;;;;10.88;65.74;99178.47;5015750;28;20073;-64
2022/04/12 13:10:43;;;;;;;4.88;2.88;;;;;;;10.89;65.84;99181.06;5000667;28;20044;-64
2022/04/12 13:13:27;;;;;;;6.13;2.63;;;;;;;10.91;65.72;99178.47;5000991;28;20052;-65